sensor_id;sensor_type;location;lat;lon;timestamp;P1;durP1;ratioP1;P2;durP2;ratioP2
53875;SDS011;39789;53.216;5.624;2023-02-07T00:00:46;21.95;;;9.40;;
53875;SDS011;39789;53.216;5.624;2023-02-07T00:03:12;13.77;;;8.13;;
53875;SDS011;39789;53.216;5.624;2023-02-07T00:05:38;22.00;;;8.43;;
53875;SDS011;39789;53.216;5.624;2023-02-07T00:08:04;16.17;;;8.20;;
53875;SDS011;39789;53.216;5.624;2023-02-07T00:10:30;15.27;;;8.00;;
53875;SDS011;39789;53.216;5.624;2023-02-07T00:12:56;18.83;;;7.90;;
53875;SDS011;39789;53.216;5.624;2023-02-07T00:15:22;14.70;;;8.00;;
53875;SDS011;39789;53.216;5.624;2023-02-07T00:17:48;18.63;;;8.35;;
53875;SDS011;39789;53.216;5.624;2023-02-07T00:20:14;19.70;;;8.32;;
53875;SDS011;39789;53.216;5.624;2023-02-07T00:22:41;14.52;;;7.43;;
53875;SDS011;39789;53.216;5.624;2023-02-07T00:25:08;15.38;;;6.60;;
53875;SDS011;39789;53.216;5.624;2023-02-07T00:27:33;14.73;;;6.93;;
53875;SDS011;39789;53.216;5.624;2023-02-07T00:29:59;25.88;;;8.80;;
53875;SDS011;39789;53.216;5.624;2023-02-07T00:32:24;15.75;;;7.03;;
53875;SDS011;39789;53.216;5.624;2023-02-07T00:34:50;14.30;;;6.90;;
53875;SDS011;39789;53.216;5.624;2023-02-07T00:37:16;16.75;;;7.13;;
53875;SDS011;39789;53.216;5.624;2023-02-07T00:39:41;13.95;;;7.22;;
53875;SDS011;39789;53.216;5.624;2023-02-07T00:42:07;13.68;;;6.60;;
53875;SDS011;39789;53.216;5.624;2023-02-07T00:44:33;13.57;;;6.85;;
53875;SDS011;39789;53.216;5.624;2023-02-07T00:46:58;15.02;;;7.55;;
53875;SDS011;39789;53.216;5.624;2023-02-07T00:49:24;18.50;;;7.93;;
53875;SDS011;39789;53.216;5.624;2023-02-07T00:51:49;22.13;;;8.77;;
53875;SDS011;39789;53.216;5.624;2023-02-07T00:54:15;23.02;;;10.40;;
53875;SDS011;39789;53.216;5.624;2023-02-07T00:56:41;15.85;;;8.10;;
53875;SDS011;39789;53.216;5.624;2023-02-07T00:59:06;13.30;;;6.80;;
53875;SDS011;39789;53.216;5.624;2023-02-07T01:01:32;13.73;;;7.15;;
53875;SDS011;39789;53.216;5.624;2023-02-07T01:03:57;20.30;;;8.38;;
53875;SDS011;39789;53.216;5.624;2023-02-07T01:06:23;16.70;;;7.75;;
53875;SDS011;39789;53.216;5.624;2023-02-07T01:08:49;17.02;;;8.60;;
53875;SDS011;39789;53.216;5.624;2023-02-07T01:11:19;16.02;;;8.43;;
53875;SDS011;39789;53.216;5.624;2023-02-07T01:13:45;20.25;;;8.30;;
53875;SDS011;39789;53.216;5.624;2023-02-07T01:16:20;15.60;;;8.73;;
53875;SDS011;39789;53.216;5.624;2023-02-07T01:21:32;29.60;;;9.35;;
53875;SDS011;39789;53.216;5.624;2023-02-07T01:23:58;18.50;;;8.07;;
53875;SDS011;39789;53.216;5.624;2023-02-07T01:26:24;17.38;;;8.88;;
53875;SDS011;39789;53.216;5.624;2023-02-07T01:28:50;14.75;;;7.63;;
53875;SDS011;39789;53.216;5.624;2023-02-07T01:31:16;16.23;;;8.07;;
53875;SDS011;39789;53.216;5.624;2023-02-07T01:33:42;21.33;;;7.03;;
53875;SDS011;39789;53.216;5.624;2023-02-07T01:36:12;17.88;;;8.57;;
53875;SDS011;39789;53.216;5.624;2023-02-07T01:38:39;17.10;;;8.07;;
53875;SDS011;39789;53.216;5.624;2023-02-07T01:41:05;23.80;;;9.48;;
53875;SDS011;39789;53.216;5.624;2023-02-07T01:43:31;22.40;;;8.65;;
53875;SDS011;39789;53.216;5.624;2023-02-07T01:45:56;23.45;;;9.10;;
53875;SDS011;39789;53.216;5.624;2023-02-07T01:48:24;20.67;;;11.23;;
53875;SDS011;39789;53.216;5.624;2023-02-07T01:50:57;22.73;;;10.00;;
53875;SDS011;39789;53.216;5.624;2023-02-07T01:53:28;21.80;;;9.20;;
53875;SDS011;39789;53.216;5.624;2023-02-07T01:55:56;17.27;;;8.55;;
53875;SDS011;39789;53.216;5.624;2023-02-07T01:58:25;21.58;;;9.32;;
53875;SDS011;39789;53.216;5.624;2023-02-07T02:00:52;16.10;;;9.05;;
53875;SDS011;39789;53.216;5.624;2023-02-07T02:03:17;21.67;;;9.00;;
53875;SDS011;39789;53.216;5.624;2023-02-07T02:05:43;23.77;;;10.43;;
53875;SDS011;39789;53.216;5.624;2023-02-07T02:08:10;26.85;;;10.25;;
53875;SDS011;39789;53.216;5.624;2023-02-07T02:18:56;31.73;;;12.57;;
53875;SDS011;39789;53.216;5.624;2023-02-07T02:27:32;22.00;;;11.40;;
53875;SDS011;39789;53.216;5.624;2023-02-07T02:30:21;22.45;;;12.10;;
53875;SDS011;39789;53.216;5.624;2023-02-07T02:33:25;28.65;;;11.68;;
53875;SDS011;39789;53.216;5.624;2023-02-07T02:36:08;27.40;;;13.20;;
53875;SDS011;39789;53.216;5.624;2023-02-07T02:39:00;29.88;;;11.70;;
53875;SDS011;39789;53.216;5.624;2023-02-07T02:41:32;23.30;;;11.27;;
53875;SDS011;39789;53.216;5.624;2023-02-07T02:44:09;24.40;;;12.20;;
53875;SDS011;39789;53.216;5.624;2023-02-07T02:46:46;28.90;;;12.60;;
53875;SDS011;39789;53.216;5.624;2023-02-07T02:49:13;29.45;;;12.40;;
53875;SDS011;39789;53.216;5.624;2023-02-07T02:51:39;24.40;;;12.35;;
53875;SDS011;39789;53.216;5.624;2023-02-07T02:54:23;32.30;;;12.95;;
53875;SDS011;39789;53.216;5.624;2023-02-07T02:56:57;28.02;;;12.90;;
53875;SDS011;39789;53.216;5.624;2023-02-07T03:02:50;32.42;;;13.02;;
53875;SDS011;39789;53.216;5.624;2023-02-07T03:05:52;24.38;;;12.05;;
53875;SDS011;39789;53.216;5.624;2023-02-07T03:08:30;25.45;;;12.88;;
53875;SDS011;39789;53.216;5.624;2023-02-07T03:11:13;28.38;;;13.48;;
53875;SDS011;39789;53.216;5.624;2023-02-07T03:19:34;25.67;;;13.95;;
53875;SDS011;39789;53.216;5.624;2023-02-07T03:22:06;31.02;;;13.73;;
53875;SDS011;39789;53.216;5.624;2023-02-07T03:24:38;27.13;;;14.65;;
53875;SDS011;39789;53.216;5.624;2023-02-07T03:27:09;30.85;;;13.98;;
53875;SDS011;39789;53.216;5.624;2023-02-07T03:29:38;32.10;;;15.60;;
53875;SDS011;39789;53.216;5.624;2023-02-07T03:32:07;25.67;;;13.90;;
53875;SDS011;39789;53.216;5.624;2023-02-07T03:34:40;28.50;;;14.25;;
53875;SDS011;39789;53.216;5.624;2023-02-07T03:40:13;31.70;;;14.88;;
53875;SDS011;39789;53.216;5.624;2023-02-07T03:42:45;37.85;;;15.48;;
53875;SDS011;39789;53.216;5.624;2023-02-07T03:45:16;32.33;;;16.17;;
53875;SDS011;39789;53.216;5.624;2023-02-07T03:47:43;31.15;;;15.85;;
53875;SDS011;39789;53.216;5.624;2023-02-07T03:50:10;44.13;;;16.60;;
53875;SDS011;39789;53.216;5.624;2023-02-07T03:52:36;30.60;;;15.10;;
53875;SDS011;39789;53.216;5.624;2023-02-07T03:55:02;34.25;;;15.65;;
53875;SDS011;39789;53.216;5.624;2023-02-07T03:57:27;34.55;;;17.83;;
53875;SDS011;39789;53.216;5.624;2023-02-07T03:59:53;37.17;;;15.43;;
53875;SDS011;39789;53.216;5.624;2023-02-07T04:02:18;30.38;;;15.32;;
53875;SDS011;39789;53.216;5.624;2023-02-07T04:04:44;28.60;;;15.82;;
53875;SDS011;39789;53.216;5.624;2023-02-07T04:07:10;42.35;;;16.50;;
53875;SDS011;39789;53.216;5.624;2023-02-07T04:09:35;37.22;;;16.35;;
53875;SDS011;39789;53.216;5.624;2023-02-07T04:12:01;30.10;;;15.82;;
53875;SDS011;39789;53.216;5.624;2023-02-07T04:14:28;46.38;;;16.38;;
53875;SDS011;39789;53.216;5.624;2023-02-07T04:16:53;36.88;;;16.90;;
53875;SDS011;39789;53.216;5.624;2023-02-07T04:19:19;33.08;;;16.42;;
53875;SDS011;39789;53.216;5.624;2023-02-07T04:21:44;34.25;;;16.85;;
53875;SDS011;39789;53.216;5.624;2023-02-07T04:24:10;34.60;;;17.02;;
53875;SDS011;39789;53.216;5.624;2023-02-07T04:26:36;34.97;;;15.95;;
53875;SDS011;39789;53.216;5.624;2023-02-07T04:29:02;37.80;;;16.33;;
53875;SDS011;39789;53.216;5.624;2023-02-07T04:31:27;28.35;;;16.30;;
53875;SDS011;39789;53.216;5.624;2023-02-07T04:33:53;43.13;;;18.27;;
53875;SDS011;39789;53.216;5.624;2023-02-07T04:36:19;37.45;;;17.95;;
53875;SDS011;39789;53.216;5.624;2023-02-07T04:38:44;41.40;;;16.88;;
53875;SDS011;39789;53.216;5.624;2023-02-07T04:41:10;39.40;;;19.35;;
53875;SDS011;39789;53.216;5.624;2023-02-07T04:43:35;40.55;;;17.48;;
53875;SDS011;39789;53.216;5.624;2023-02-07T04:46:02;48.47;;;18.38;;
53875;SDS011;39789;53.216;5.624;2023-02-07T04:48:29;47.13;;;18.70;;
53875;SDS011;39789;53.216;5.624;2023-02-07T04:50:55;36.60;;;18.38;;
53875;SDS011;39789;53.216;5.624;2023-02-07T04:53:21;40.20;;;18.77;;
53875;SDS011;39789;53.216;5.624;2023-02-07T04:55:50;47.40;;;18.85;;
53875;SDS011;39789;53.216;5.624;2023-02-07T04:58:18;41.30;;;18.98;;
53875;SDS011;39789;53.216;5.624;2023-02-07T05:00:44;41.80;;;18.85;;
53875;SDS011;39789;53.216;5.624;2023-02-07T05:03:10;48.60;;;20.00;;
53875;SDS011;39789;53.216;5.624;2023-02-07T05:05:37;45.25;;;19.58;;
53875;SDS011;39789;53.216;5.624;2023-02-07T05:08:06;49.58;;;20.63;;
53875;SDS011;39789;53.216;5.624;2023-02-07T05:10:32;48.58;;;20.77;;
53875;SDS011;39789;53.216;5.624;2023-02-07T05:12:58;45.28;;;21.00;;
53875;SDS011;39789;53.216;5.624;2023-02-07T05:15:24;43.40;;;19.70;;
53875;SDS011;39789;53.216;5.624;2023-02-07T05:17:49;49.08;;;21.27;;
53875;SDS011;39789;53.216;5.624;2023-02-07T05:20:16;49.60;;;21.50;;
53875;SDS011;39789;53.216;5.624;2023-02-07T05:22:42;50.90;;;21.13;;
53875;SDS011;39789;53.216;5.624;2023-02-07T05:25:08;44.47;;;20.27;;
53875;SDS011;39789;53.216;5.624;2023-02-07T05:27:33;46.97;;;21.40;;
53875;SDS011;39789;53.216;5.624;2023-02-07T05:29:59;51.58;;;22.65;;
53875;SDS011;39789;53.216;5.624;2023-02-07T05:32:25;61.95;;;21.73;;
53875;SDS011;39789;53.216;5.624;2023-02-07T05:35:09;80.45;;;23.30;;
53875;SDS011;39789;53.216;5.624;2023-02-07T05:37:35;102.75;;;24.77;;
53875;SDS011;39789;53.216;5.624;2023-02-07T05:40:00;126.82;;;24.73;;
53875;SDS011;39789;53.216;5.624;2023-02-07T05:42:26;198.68;;;28.08;;
53875;SDS011;39789;53.216;5.624;2023-02-07T05:44:51;265.67;;;30.45;;
53875;SDS011;39789;53.216;5.624;2023-02-07T05:47:18;305.00;;;32.20;;
53875;SDS011;39789;53.216;5.624;2023-02-07T05:49:43;267.52;;;32.13;;
53875;SDS011;39789;53.216;5.624;2023-02-07T05:52:09;242.40;;;31.70;;
53875;SDS011;39789;53.216;5.624;2023-02-07T05:54:34;136.95;;;27.00;;
53875;SDS011;39789;53.216;5.624;2023-02-07T05:57:00;182.02;;;28.52;;
53875;SDS011;39789;53.216;5.624;2023-02-07T05:59:25;145.40;;;23.08;;
53875;SDS011;39789;53.216;5.624;2023-02-07T06:01:51;236.70;;;29.83;;
53875;SDS011;39789;53.216;5.624;2023-02-07T06:04:16;124.47;;;24.08;;
53875;SDS011;39789;53.216;5.624;2023-02-07T06:06:42;218.18;;;27.38;;
53875;SDS011;39789;53.216;5.624;2023-02-07T06:09:07;159.25;;;26.90;;
53875;SDS011;39789;53.216;5.624;2023-02-07T06:11:33;193.95;;;28.65;;
53875;SDS011;39789;53.216;5.624;2023-02-07T06:13:59;83.10;;;21.30;;
53875;SDS011;39789;53.216;5.624;2023-02-07T06:16:24;91.15;;;23.55;;
53875;SDS011;39789;53.216;5.624;2023-02-07T06:18:50;178.05;;;28.65;;
53875;SDS011;39789;53.216;5.624;2023-02-07T06:21:15;118.53;;;24.27;;
53875;SDS011;39789;53.216;5.624;2023-02-07T06:23:41;72.68;;;22.63;;
53875;SDS011;39789;53.216;5.624;2023-02-07T06:26:07;69.13;;;22.23;;
53875;SDS011;39789;53.216;5.624;2023-02-07T06:28:32;78.03;;;23.95;;
53875;SDS011;39789;53.216;5.624;2023-02-07T06:30:58;118.13;;;25.65;;
53875;SDS011;39789;53.216;5.624;2023-02-07T06:33:23;85.50;;;24.50;;
53875;SDS011;39789;53.216;5.624;2023-02-07T06:35:49;107.72;;;26.15;;
53875;SDS011;39789;53.216;5.624;2023-02-07T06:38:16;155.57;;;27.60;;
53875;SDS011;39789;53.216;5.624;2023-02-07T06:40:42;108.32;;;25.92;;
53875;SDS011;39789;53.216;5.624;2023-02-07T06:43:08;174.95;;;33.80;;
53875;SDS011;39789;53.216;5.624;2023-02-07T06:45:34;84.95;;;25.52;;
53875;SDS011;39789;53.216;5.624;2023-02-07T06:48:00;141.57;;;28.88;;
53875;SDS011;39789;53.216;5.624;2023-02-07T06:50:26;143.57;;;29.02;;
53875;SDS011;39789;53.216;5.624;2023-02-07T06:52:52;94.38;;;23.52;;
53875;SDS011;39789;53.216;5.624;2023-02-07T06:55:17;106.97;;;25.73;;
53875;SDS011;39789;53.216;5.624;2023-02-07T06:57:43;90.45;;;24.75;;
53875;SDS011;39789;53.216;5.624;2023-02-07T07:00:09;97.28;;;24.38;;
53875;SDS011;39789;53.216;5.624;2023-02-07T07:02:35;195.32;;;30.73;;
53875;SDS011;39789;53.216;5.624;2023-02-07T07:05:00;130.50;;;26.67;;
53875;SDS011;39789;53.216;5.624;2023-02-07T07:07:26;102.97;;;27.70;;
53875;SDS011;39789;53.216;5.624;2023-02-07T07:09:52;83.47;;;23.63;;
53875;SDS011;39789;53.216;5.624;2023-02-07T07:12:17;70.57;;;25.00;;
53875;SDS011;39789;53.216;5.624;2023-02-07T07:14:43;61.22;;;22.85;;
53875;SDS011;39789;53.216;5.624;2023-02-07T07:17:09;42.10;;;21.35;;
53875;SDS011;39789;53.216;5.624;2023-02-07T07:19:34;39.83;;;22.08;;
53875;SDS011;39789;53.216;5.624;2023-02-07T07:22:00;40.17;;;22.15;;
53875;SDS011;39789;53.216;5.624;2023-02-07T07:24:25;38.72;;;21.52;;
53875;SDS011;39789;53.216;5.624;2023-02-07T07:26:51;35.85;;;20.50;;
53875;SDS011;39789;53.216;5.624;2023-02-07T07:29:17;42.03;;;24.10;;
53875;SDS011;39789;53.216;5.624;2023-02-07T07:31:44;38.88;;;23.10;;
53875;SDS011;39789;53.216;5.624;2023-02-07T07:34:10;40.63;;;25.20;;
53875;SDS011;39789;53.216;5.624;2023-02-07T07:36:36;50.92;;;26.45;;
53875;SDS011;39789;53.216;5.624;2023-02-07T07:39:02;39.67;;;22.90;;
53875;SDS011;39789;53.216;5.624;2023-02-07T07:41:28;38.67;;;21.77;;
53875;SDS011;39789;53.216;5.624;2023-02-07T07:43:54;35.53;;;21.50;;
53875;SDS011;39789;53.216;5.624;2023-02-07T07:46:19;36.25;;;21.48;;
53875;SDS011;39789;53.216;5.624;2023-02-07T07:48:45;38.67;;;21.70;;
53875;SDS011;39789;53.216;5.624;2023-02-07T07:51:10;33.55;;;21.10;;
53875;SDS011;39789;53.216;5.624;2023-02-07T07:53:36;44.03;;;22.02;;
53875;SDS011;39789;53.216;5.624;2023-02-07T07:56:02;36.92;;;20.10;;
53875;SDS011;39789;53.216;5.624;2023-02-07T07:58:28;35.63;;;20.73;;
53875;SDS011;39789;53.216;5.624;2023-02-07T08:00:53;35.70;;;19.48;;
53875;SDS011;39789;53.216;5.624;2023-02-07T08:03:19;39.22;;;21.75;;
53875;SDS011;39789;53.216;5.624;2023-02-07T08:05:45;34.42;;;21.10;;
53875;SDS011;39789;53.216;5.624;2023-02-07T08:08:11;38.60;;;22.17;;
53875;SDS011;39789;53.216;5.624;2023-02-07T08:10:37;35.97;;;21.88;;
53875;SDS011;39789;53.216;5.624;2023-02-07T08:13:03;38.15;;;21.92;;
53875;SDS011;39789;53.216;5.624;2023-02-07T08:15:29;35.13;;;20.45;;
53875;SDS011;39789;53.216;5.624;2023-02-07T08:17:55;34.22;;;20.63;;
53875;SDS011;39789;53.216;5.624;2023-02-07T08:20:20;33.30;;;20.60;;
53875;SDS011;39789;53.216;5.624;2023-02-07T08:22:46;36.38;;;21.38;;
53875;SDS011;39789;53.216;5.624;2023-02-07T08:25:11;39.42;;;21.67;;
53875;SDS011;39789;53.216;5.624;2023-02-07T08:27:37;36.78;;;21.42;;
53875;SDS011;39789;53.216;5.624;2023-02-07T08:30:04;41.65;;;22.75;;
53875;SDS011;39789;53.216;5.624;2023-02-07T08:32:31;38.08;;;23.05;;
53875;SDS011;39789;53.216;5.624;2023-02-07T08:34:57;36.85;;;22.70;;
53875;SDS011;39789;53.216;5.624;2023-02-07T08:37:22;40.53;;;24.48;;
53875;SDS011;39789;53.216;5.624;2023-02-07T08:39:48;41.45;;;22.75;;
53875;SDS011;39789;53.216;5.624;2023-02-07T08:42:17;46.42;;;22.85;;
53875;SDS011;39789;53.216;5.624;2023-02-07T08:44:45;38.40;;;22.25;;
53875;SDS011;39789;53.216;5.624;2023-02-07T08:47:11;41.72;;;23.20;;
53875;SDS011;39789;53.216;5.624;2023-02-07T08:49:37;42.85;;;23.25;;
53875;SDS011;39789;53.216;5.624;2023-02-07T08:52:02;43.67;;;23.33;;
53875;SDS011;39789;53.216;5.624;2023-02-07T08:54:28;37.47;;;22.13;;
53875;SDS011;39789;53.216;5.624;2023-02-07T08:56:54;41.40;;;24.00;;
53875;SDS011;39789;53.216;5.624;2023-02-07T08:59:19;39.25;;;23.23;;
53875;SDS011;39789;53.216;5.624;2023-02-07T09:01:45;39.28;;;22.10;;
53875;SDS011;39789;53.216;5.624;2023-02-07T09:04:10;37.47;;;23.67;;
53875;SDS011;39789;53.216;5.624;2023-02-07T09:06:36;40.25;;;23.25;;
53875;SDS011;39789;53.216;5.624;2023-02-07T09:09:03;35.75;;;23.33;;
53875;SDS011;39789;53.216;5.624;2023-02-07T09:11:29;35.58;;;22.10;;
53875;SDS011;39789;53.216;5.624;2023-02-07T09:13:54;39.03;;;23.48;;
53875;SDS011;39789;53.216;5.624;2023-02-07T09:16:20;41.90;;;24.30;;
53875;SDS011;39789;53.216;5.624;2023-02-07T09:18:47;40.10;;;23.95;;
53875;SDS011;39789;53.216;5.624;2023-02-07T09:21:13;38.50;;;22.13;;
53875;SDS011;39789;53.216;5.624;2023-02-07T09:23:38;41.00;;;23.63;;
53875;SDS011;39789;53.216;5.624;2023-02-07T09:26:05;39.30;;;23.27;;
53875;SDS011;39789;53.216;5.624;2023-02-07T09:28:32;41.28;;;24.20;;
53875;SDS011;39789;53.216;5.624;2023-02-07T09:30:59;42.30;;;23.98;;
53875;SDS011;39789;53.216;5.624;2023-02-07T09:33:24;37.10;;;22.45;;
53875;SDS011;39789;53.216;5.624;2023-02-07T09:35:50;40.97;;;24.20;;
53875;SDS011;39789;53.216;5.624;2023-02-07T09:38:19;39.08;;;22.95;;
53875;SDS011;39789;53.216;5.624;2023-02-07T09:40:47;37.53;;;22.67;;
53875;SDS011;39789;53.216;5.624;2023-02-07T09:45:53;34.33;;;21.10;;
53875;SDS011;39789;53.216;5.624;2023-02-07T09:48:23;39.05;;;22.45;;
53875;SDS011;39789;53.216;5.624;2023-02-07T09:51:01;33.90;;;21.48;;
53875;SDS011;39789;53.216;5.624;2023-02-07T09:56:02;39.97;;;22.85;;
53875;SDS011;39789;53.216;5.624;2023-02-07T09:58:41;39.55;;;22.98;;
53875;SDS011;39789;53.216;5.624;2023-02-07T10:01:25;40.27;;;22.37;;
53875;SDS011;39789;53.216;5.624;2023-02-07T10:06:42;39.53;;;21.85;;
53875;SDS011;39789;53.216;5.624;2023-02-07T10:09:14;36.85;;;22.02;;
53875;SDS011;39789;53.216;5.624;2023-02-07T10:11:53;41.30;;;23.45;;
53875;SDS011;39789;53.216;5.624;2023-02-07T10:22:54;32.80;;;21.45;;
53875;SDS011;39789;53.216;5.624;2023-02-07T10:31:18;42.53;;;24.40;;
53875;SDS011;39789;53.216;5.624;2023-02-07T10:33:49;38.33;;;22.70;;
53875;SDS011;39789;53.216;5.624;2023-02-07T10:36:19;36.08;;;22.05;;
53875;SDS011;39789;53.216;5.624;2023-02-07T10:39:10;36.55;;;22.20;;
53875;SDS011;39789;53.216;5.624;2023-02-07T10:41:43;41.28;;;22.48;;
53875;SDS011;39789;53.216;5.624;2023-02-07T10:44:10;33.60;;;21.25;;
53875;SDS011;39789;53.216;5.624;2023-02-07T10:46:49;37.78;;;22.05;;
53875;SDS011;39789;53.216;5.624;2023-02-07T10:49:22;32.88;;;20.33;;
53875;SDS011;39789;53.216;5.624;2023-02-07T10:51:50;37.13;;;21.27;;
53875;SDS011;39789;53.216;5.624;2023-02-07T10:54:20;31.65;;;20.80;;
53875;SDS011;39789;53.216;5.624;2023-02-07T10:56:49;30.85;;;19.15;;
53875;SDS011;39789;53.216;5.624;2023-02-07T10:59:39;31.95;;;19.52;;
53875;SDS011;39789;53.216;5.624;2023-02-07T11:04:57;32.67;;;19.38;;
53875;SDS011;39789;53.216;5.624;2023-02-07T11:07:25;31.83;;;18.48;;
53875;SDS011;39789;53.216;5.624;2023-02-07T11:09:51;30.92;;;19.70;;
53875;SDS011;39789;53.216;5.624;2023-02-07T11:12:33;33.50;;;19.60;;
53875;SDS011;39789;53.216;5.624;2023-02-07T11:15:20;31.98;;;18.73;;
53875;SDS011;39789;53.216;5.624;2023-02-07T11:17:51;32.65;;;18.65;;
53875;SDS011;39789;53.216;5.624;2023-02-07T11:20:22;32.55;;;19.58;;
53875;SDS011;39789;53.216;5.624;2023-02-07T11:22:53;27.85;;;19.15;;
53875;SDS011;39789;53.216;5.624;2023-02-07T11:25:29;30.25;;;19.13;;
53875;SDS011;39789;53.216;5.624;2023-02-07T11:28:23;33.60;;;18.90;;
53875;SDS011;39789;53.216;5.624;2023-02-07T11:30:56;32.85;;;18.33;;
53875;SDS011;39789;53.216;5.624;2023-02-07T11:33:27;33.17;;;19.20;;
53875;SDS011;39789;53.216;5.624;2023-02-07T11:38:58;30.17;;;19.83;;
53875;SDS011;39789;53.216;5.624;2023-02-07T11:41:25;32.35;;;19.58;;
53875;SDS011;39789;53.216;5.624;2023-02-07T11:44:00;34.45;;;19.23;;
53875;SDS011;39789;53.216;5.624;2023-02-07T11:46:37;34.95;;;19.73;;
53875;SDS011;39789;53.216;5.624;2023-02-07T11:49:05;29.83;;;19.73;;
53875;SDS011;39789;53.216;5.624;2023-02-07T11:51:43;31.83;;;18.70;;
53875;SDS011;39789;53.216;5.624;2023-02-07T11:54:09;31.38;;;20.25;;
53875;SDS011;39789;53.216;5.624;2023-02-07T11:56:39;29.95;;;18.17;;
53875;SDS011;39789;53.216;5.624;2023-02-07T11:59:16;29.77;;;18.67;;
53875;SDS011;39789;53.216;5.624;2023-02-07T12:01:48;32.17;;;18.13;;
53875;SDS011;39789;53.216;5.624;2023-02-07T12:04:17;26.88;;;18.10;;
53875;SDS011;39789;53.216;5.624;2023-02-07T12:10:35;30.63;;;17.88;;
53875;SDS011;39789;53.216;5.624;2023-02-07T12:15:44;28.10;;;18.13;;
53875;SDS011;39789;53.216;5.624;2023-02-07T12:18:14;30.23;;;18.52;;
53875;SDS011;39789;53.216;5.624;2023-02-07T12:20:55;26.67;;;18.35;;
53875;SDS011;39789;53.216;5.624;2023-02-07T12:26:23;29.88;;;20.00;;
53875;SDS011;39789;53.216;5.624;2023-02-07T12:29:58;25.70;;;16.98;;
53875;SDS011;39789;53.216;5.624;2023-02-07T12:32:59;32.83;;;18.45;;
53875;SDS011;39789;53.216;5.624;2023-02-07T12:41:55;31.65;;;17.63;;
53875;SDS011;39789;53.216;5.624;2023-02-07T12:44:56;28.73;;;17.08;;
53875;SDS011;39789;53.216;5.624;2023-02-07T12:50:02;28.70;;;17.55;;
53875;SDS011;39789;53.216;5.624;2023-02-07T12:52:52;32.92;;;18.85;;
53875;SDS011;39789;53.216;5.624;2023-02-07T13:04:15;28.08;;;16.75;;
53875;SDS011;39789;53.216;5.624;2023-02-07T13:10:02;30.17;;;18.52;;
53875;SDS011;39789;53.216;5.624;2023-02-07T13:12:54;26.98;;;17.85;;
53875;SDS011;39789;53.216;5.624;2023-02-07T13:15:53;30.10;;;19.48;;
53875;SDS011;39789;53.216;5.624;2023-02-07T13:18:26;28.67;;;18.13;;
53875;SDS011;39789;53.216;5.624;2023-02-07T13:23:47;32.35;;;18.50;;
53875;SDS011;39789;53.216;5.624;2023-02-07T13:26:20;29.30;;;20.52;;
53875;SDS011;39789;53.216;5.624;2023-02-07T13:28:55;34.55;;;19.98;;
53875;SDS011;39789;53.216;5.624;2023-02-07T13:34:24;32.38;;;21.83;;
53875;SDS011;39789;53.216;5.624;2023-02-07T13:37:04;38.08;;;21.40;;
53875;SDS011;39789;53.216;5.624;2023-02-07T13:45:39;33.97;;;22.98;;
53875;SDS011;39789;53.216;5.624;2023-02-07T13:48:31;39.72;;;22.00;;
53875;SDS011;39789;53.216;5.624;2023-02-07T13:51:13;35.17;;;21.33;;
53875;SDS011;39789;53.216;5.624;2023-02-07T13:54:48;37.53;;;22.90;;
53875;SDS011;39789;53.216;5.624;2023-02-07T14:00:19;42.40;;;24.20;;
53875;SDS011;39789;53.216;5.624;2023-02-07T14:02:50;41.38;;;22.88;;
53875;SDS011;39789;53.216;5.624;2023-02-07T14:05:39;41.17;;;23.45;;
53875;SDS011;39789;53.216;5.624;2023-02-07T14:15:53;38.83;;;23.70;;
53875;SDS011;39789;53.216;5.624;2023-02-07T14:18:38;40.90;;;23.35;;
53875;SDS011;39789;53.216;5.624;2023-02-07T14:31:48;37.78;;;23.40;;
53875;SDS011;39789;53.216;5.624;2023-02-07T14:36:52;33.05;;;21.90;;
53875;SDS011;39789;53.216;5.624;2023-02-07T14:39:32;34.13;;;21.35;;
53875;SDS011;39789;53.216;5.624;2023-02-07T14:42:08;37.35;;;22.20;;
53875;SDS011;39789;53.216;5.624;2023-02-07T14:44:37;36.20;;;21.77;;
53875;SDS011;39789;53.216;5.624;2023-02-07T14:47:06;35.25;;;20.50;;
53875;SDS011;39789;53.216;5.624;2023-02-07T14:49:43;37.38;;;21.65;;
53875;SDS011;39789;53.216;5.624;2023-02-07T14:52:21;34.60;;;20.15;;
53875;SDS011;39789;53.216;5.624;2023-02-07T14:55:03;34.53;;;19.50;;
53875;SDS011;39789;53.216;5.624;2023-02-07T15:02:39;31.75;;;19.35;;
53875;SDS011;39789;53.216;5.624;2023-02-07T15:05:17;29.42;;;17.33;;
53875;SDS011;39789;53.216;5.624;2023-02-07T15:07:45;31.35;;;18.40;;
53875;SDS011;39789;53.216;5.624;2023-02-07T15:10:12;34.38;;;17.52;;
53875;SDS011;39789;53.216;5.624;2023-02-07T15:12:39;32.97;;;17.05;;
53875;SDS011;39789;53.216;5.624;2023-02-07T15:15:09;30.13;;;17.10;;
53875;SDS011;39789;53.216;5.624;2023-02-07T15:17:45;28.77;;;16.48;;
53875;SDS011;39789;53.216;5.624;2023-02-07T15:20:16;28.27;;;16.25;;
53875;SDS011;39789;53.216;5.624;2023-02-07T15:22:51;24.80;;;15.02;;
53875;SDS011;39789;53.216;5.624;2023-02-07T15:31:31;25.40;;;15.32;;
53875;SDS011;39789;53.216;5.624;2023-02-07T15:33:58;25.42;;;15.63;;
53875;SDS011;39789;53.216;5.624;2023-02-07T15:39:02;20.55;;;13.38;;
53875;SDS011;39789;53.216;5.624;2023-02-07T15:41:30;20.92;;;11.88;;
53875;SDS011;39789;53.216;5.624;2023-02-07T15:44:00;22.40;;;13.07;;
53875;SDS011;39789;53.216;5.624;2023-02-07T15:49:25;30.90;;;13.38;;
53875;SDS011;39789;53.216;5.624;2023-02-07T15:51:51;21.75;;;14.77;;
53875;SDS011;39789;53.216;5.624;2023-02-07T15:54:19;24.45;;;15.43;;
53875;SDS011;39789;53.216;5.624;2023-02-07T15:56:47;26.77;;;16.52;;
53875;SDS011;39789;53.216;5.624;2023-02-07T15:59:17;24.10;;;14.15;;
53875;SDS011;39789;53.216;5.624;2023-02-07T16:01:50;24.30;;;12.98;;
53875;SDS011;39789;53.216;5.624;2023-02-07T16:04:17;21.40;;;13.05;;
53875;SDS011;39789;53.216;5.624;2023-02-07T16:07:00;20.75;;;12.68;;
53875;SDS011;39789;53.216;5.624;2023-02-07T16:09:36;20.98;;;12.70;;
53875;SDS011;39789;53.216;5.624;2023-02-07T16:14:57;24.00;;;13.75;;
53875;SDS011;39789;53.216;5.624;2023-02-07T16:17:37;21.70;;;12.68;;
53875;SDS011;39789;53.216;5.624;2023-02-07T16:20:06;20.88;;;12.20;;
53875;SDS011;39789;53.216;5.624;2023-02-07T16:22:33;24.60;;;13.23;;
53875;SDS011;39789;53.216;5.624;2023-02-07T16:25:02;20.75;;;11.63;;
53875;SDS011;39789;53.216;5.624;2023-02-07T16:27:27;20.10;;;13.13;;
53875;SDS011;39789;53.216;5.624;2023-02-07T16:29:59;23.77;;;14.05;;
53875;SDS011;39789;53.216;5.624;2023-02-07T16:32:29;19.77;;;11.60;;
53875;SDS011;39789;53.216;5.624;2023-02-07T16:34:57;24.15;;;12.65;;
53875;SDS011;39789;53.216;5.624;2023-02-07T16:37:24;25.38;;;12.45;;
53875;SDS011;39789;53.216;5.624;2023-02-07T16:39:50;24.25;;;13.60;;
53875;SDS011;39789;53.216;5.624;2023-02-07T16:42:16;19.27;;;12.07;;
53875;SDS011;39789;53.216;5.624;2023-02-07T16:44:43;21.73;;;12.63;;
53875;SDS011;39789;53.216;5.624;2023-02-07T16:47:11;23.67;;;13.45;;
53875;SDS011;39789;53.216;5.624;2023-02-07T16:49:38;22.20;;;13.35;;
53875;SDS011;39789;53.216;5.624;2023-02-07T16:52:04;23.80;;;14.80;;
53875;SDS011;39789;53.216;5.624;2023-02-07T16:54:29;22.50;;;14.27;;
53875;SDS011;39789;53.216;5.624;2023-02-07T16:56:56;24.10;;;12.45;;
53875;SDS011;39789;53.216;5.624;2023-02-07T16:59:23;24.77;;;14.07;;
53875;SDS011;39789;53.216;5.624;2023-02-07T17:01:51;21.40;;;12.88;;